LIPQ Airport Information

Runway Information
Runway 09 Length 9843 ft width 148 ft
Elevation 37 ft Threshold 656 ft Heading 90
Runway 27 Length 9843 ft Width 148 ft
Elevation 36 ft Threshold 0 ft Heading 270
Airport Frequencies
Type APP Name APP Frequency 119.175 MHZ
Type TWR Name TWR Frequency 130.2 MHZ
Airport Navaids
Type VOR-DME Name Ronchi Frequency 114200 KHZ
Type NDB Name Ronchi Frequency 396 KHZ
Airport Weather Information & NOTAM
ADDS - METARS form results

(0304 UTC 27 February 2021)
Data provider http://aviationweather.gov/metar/data/
 
METAR text: LIPQ 270250Z AUTO 36006KT 9999 SCT170/// 03/03 Q1022
Conditions at: LIPQ (RONCHI LEGIONARI, IT) observed 0250 UTC 27 February 2021
Temperature: 3.0°C (37°F)
Dewpoint: 3.0°C (37°F) [RH = 100%]
Pressure (altimeter): 30.18 inches Hg (1022.0 mb)
Winds: from the N (360 degrees) at 7 MPH (6 knots; 3.1 m/s)
Visibility: 6 or more miles (10+ km)
Ceiling: at least 12,000 feet AGL
Clouds: scattered clouds at 17000 feet AGL
Weather: no significant weather observed at this time

METAR text: LIPQ 270220Z AUTO 33003KT 290V010 8000 NCD 03/03 Q1022
Conditions at: LIPQ (RONCHI LEGIONARI, IT) observed 0220 UTC 27 February 2021
Temperature: 3.0°C (37°F)
Dewpoint: 3.0°C (37°F) [RH = 100%]
Pressure (altimeter): 30.18 inches Hg (1022.0 mb)
Winds: from the NNW (330 degrees) at 3 MPH (3 knots; 1.5 m/s)
Visibility: 5 miles ( 8 km)
Ceiling: at least 12,000 feet AGL
Clouds: sky clear below 12,000 feet AGL
Weather: no significant weather observed at this time

Forecast for: LIPQ (RONCHI LEGIONARI, IT)
Text: TAF LIPQ 262300Z 2700/2724 VRB04KT CAVOK
Forecast period: 0000 to 0700 UTC 27 February 2021
Forecast type: FROM: standard forecast or significant change
Winds: variable direction winds at 5 MPH (4 knots; 2.1 m/s)
Visibility: 6 or more miles (10+ km)
Ceiling: unknown
Clouds: missing
Weather: NSW  (no significant weather)
Text: TEMPO 2700/2706 4000 BR
Forecast period: 0000 to 0600 UTC 27 February 2021
Forecast type: TEMPORARY: The following changes expected for less than half the time period
Visibility: 2.49 miles (4.01 km)
Ceiling: unknown
Clouds: missing
Weather: BR  (mist)
Text: BECMG 2707/2709 08012KT
Forecast period: 0700 UTC 27 February 2021 to 0000 UTC 28 February 2021
Forecast type: BECOMING: Conditions expected to become as follows by 0900 UTC 27 February 2021
Winds: from the E (80 degrees) at 14 MPH (12 knots; 6.2 m/s)
Visibility: 6 or more miles (10+ km)
Ceiling: unknown
Clouds: missing
Weather: NSW  (no significant weather)